PTR2217 CYTZ-CYOW
Flight info
| Callsign | PTR2217 |
|---|---|
| Flight time | 0h 50m |
| Altitude | 23000 |
| Route | BOMET7 MIVOK CAPTL5 |
| Aircraft | DH8D/M-SDE2E3FGRY/H |
Departure
| Time | 2026-04-23 19:14 |
|---|---|
| Airport | Billy Bishop Toronto City Airport (CYTZ) |
Arrival
| Time | 2026-04-23 20:05 |
|---|---|
| Airport | Ottawa Macdonald-Cartier International Airport (CYOW) |
| Time | Latitude | Longitude | Altitude | Speed | Heading |
|---|---|---|---|---|---|
| 2026-04-23 19:05 | 43.63073 | -79.39532 | 239 ft | 2 kts | 341° |
| 2026-04-23 19:06 | 43.63059 | -79.39525 | 239 ft | 2 kts | 341° |
| 2026-04-23 19:06 | 43.63047 | -79.39514 | 239 ft | 2 kts | 304° |
| 2026-04-23 19:06 | 43.63043 | -79.39496 | 239 ft | 2 kts | 271° |
| 2026-04-23 19:06 | 43.63046 | -79.39476 | 239 ft | 2 kts | 250° |
| 2026-04-23 19:07 | 43.63050 | -79.39460 | 240 ft | 0 kts | 251° |
| 2026-04-23 19:09 | 43.63049 | -79.39463 | 239 ft | 4 kts | 251° |
| 2026-04-23 19:09 | 43.63028 | -79.39550 | 238 ft | 13 kts | 252° |
| 2026-04-23 19:09 | 43.62987 | -79.39719 | 239 ft | 19 kts | 251° |
| 2026-04-23 19:10 | 43.62950 | -79.39911 | 241 ft | 23 kts | 252° |
| 2026-04-23 19:10 | 43.62922 | -79.40033 | 240 ft | 13 kts | 275° |
| 2026-04-23 19:10 | 43.62958 | -79.40173 | 242 ft | 21 kts | 223° |
| 2026-04-23 19:10 | 43.62842 | -79.40311 | 242 ft | 14 kts | 221° |
| 2026-04-23 19:11 | 43.62821 | -79.40330 | 242 ft | 0 kts | 197° |
| 2026-04-23 19:12 | 43.62814 | -79.40332 | 242 ft | 6 kts | 185° |
| 2026-04-23 19:12 | 43.62759 | -79.40290 | 242 ft | 10 kts | 87° |
| 2026-04-23 19:12 | 43.62764 | -79.40261 | 242 ft | 0 kts | 71° |
| 2026-04-23 19:13 | 43.62764 | -79.40260 | 242 ft | 1 kts | 71° |
| 2026-04-23 19:13 | 43.62782 | -79.40192 | 242 ft | 1 kts | 85° |
| 2026-04-23 19:14 | 43.62810 | -79.40059 | 240 ft | 37 kts | 80° |
| 2026-04-23 19:14 | 43.63015 | -79.39238 | 241 ft | 137 kts | 73° |
| 2026-04-23 19:14 | 43.63304 | -79.37849 | 766 ft | 165 kts | 77° |
| 2026-04-23 19:14 | 43.63534 | -79.36180 | 1286 ft | 190 kts | 81° |
| 2026-04-23 19:15 | 43.63794 | -79.34271 | 1567 ft | 213 kts | 83° |
| 2026-04-23 19:15 | 43.63979 | -79.32246 | 2199 ft | 211 kts | 83° |
| 2026-04-23 19:15 | 43.64295 | -79.30210 | 2476 ft | 228 kts | 74° |
| 2026-04-23 19:15 | 43.64746 | -79.28037 | 2543 ft | 249 kts | 75° |
| 2026-04-23 19:16 | 43.65227 | -79.25657 | 2603 ft | 265 kts | 74° |
| 2026-04-23 19:16 | 43.65325 | -79.25174 | 2611 ft | 268 kts | 74° |
| 2026-04-23 19:16 | 43.65366 | -79.24975 | 2612 ft | 269 kts | 74° |
| 2026-04-23 19:17 | 43.66400 | -79.19859 | 2937 ft | 280 kts | 74° |
| 2026-04-23 19:17 | 43.66924 | -79.17228 | 3191 ft | 282 kts | 74° |
| 2026-04-23 19:17 | 43.67475 | -79.14661 | 3424 ft | 283 kts | 68° |
| 2026-04-23 19:17 | 43.67603 | -79.14270 | 3446 ft | 283 kts | 63° |
| 2026-04-23 19:18 | 43.67968 | -79.13413 | 3530 ft | 283 kts | 55° |
| 2026-04-23 19:18 | 43.69157 | -79.11243 | 3821 ft | 282 kts | 51° |
| 2026-04-23 19:19 | 43.71404 | -79.07166 | 5254 ft | 255 kts | 50° |
| 2026-04-23 19:19 | 43.72483 | -79.05192 | 5700 ft | 256 kts | 49° |
| 2026-04-23 19:20 | 43.74542 | -79.01374 | 7045 ft | 240 kts | 47° |
| 2026-04-23 19:20 | 43.75505 | -78.99569 | 7804 ft | 233 kts | 47° |
| 2026-04-23 19:20 | 43.76464 | -78.97772 | 8448 ft | 232 kts | 46° |
| 2026-04-23 19:20 | 43.77413 | -78.95994 | 9027 ft | 234 kts | 45° |
| 2026-04-23 19:21 | 43.78384 | -78.94170 | 9600 ft | 237 kts | 45° |
| 2026-04-23 19:21 | 43.80341 | -78.90478 | 10728 ft | 239 kts | 44° |
| 2026-04-23 19:21 | 43.81320 | -78.88625 | 11223 ft | 241 kts | 44° |
| 2026-04-23 19:22 | 43.82315 | -78.86740 | 11741 ft | 242 kts | 44° |
| 2026-04-23 19:22 | 43.83304 | -78.84863 | 12292 ft | 241 kts | 44° |
| 2026-04-23 19:22 | 43.85268 | -78.81029 | 13206 ft | 249 kts | 48° |
| 2026-04-23 19:23 | 43.86121 | -78.78902 | 13654 ft | 253 kts | 51° |
| 2026-04-23 19:23 | 43.86945 | -78.76763 | 14050 ft | 256 kts | 51° |
| 2026-04-23 19:23 | 43.87791 | -78.74567 | 14465 ft | 258 kts | 51° |
| 2026-04-23 19:24 | 43.89487 | -78.70167 | 15280 ft | 261 kts | 50° |
| 2026-04-23 19:24 | 43.90341 | -78.67954 | 15646 ft | 263 kts | 50° |
| 2026-04-23 19:24 | 43.92086 | -78.63438 | 16339 ft | 269 kts | 50° |
| 2026-04-23 19:25 | 43.93847 | -78.58875 | 17037 ft | 270 kts | 50° |
| 2026-04-23 19:25 | 43.95561 | -78.54424 | 17495 ft | 275 kts | 50° |
| 2026-04-23 19:26 | 43.97337 | -78.49807 | 18061 ft | 276 kts | 50° |
| 2026-04-23 19:26 | 43.98234 | -78.47472 | 18297 ft | 278 kts | 50° |
| 2026-04-23 19:27 | 44.00098 | -78.42639 | 18615 ft | 292 kts | 50° |
| 2026-04-23 19:27 | 44.03058 | -78.34927 | 19058 ft | 310 kts | 51° |
| 2026-04-23 19:28 | 44.05079 | -78.29631 | 19562 ft | 311 kts | 51° |
| 2026-04-23 19:28 | 44.07103 | -78.24322 | 19933 ft | 314 kts | 51° |
| 2026-04-23 19:29 | 44.08122 | -78.21640 | 20234 ft | 310 kts | 51° |
| 2026-04-23 19:29 | 44.10142 | -78.16334 | 20487 ft | 315 kts | 51° |
| 2026-04-23 19:30 | 44.12191 | -78.10944 | 20799 ft | 317 kts | 52° |
| 2026-04-23 19:30 | 44.13220 | -78.08231 | 21008 ft | 316 kts | 51° |
| 2026-04-23 19:30 | 44.15279 | -78.02798 | 21243 ft | 319 kts | 51° |
| 2026-04-23 19:31 | 44.16328 | -78.00028 | 21340 ft | 321 kts | 51° |
| 2026-04-23 19:31 | 44.17402 | -77.97379 | 21550 ft | 315 kts | 47° |
| 2026-04-23 19:31 | 44.18622 | -77.94830 | 21652 ft | 314 kts | 45° |
| 2026-04-23 19:31 | 44.19861 | -77.92295 | 21753 ft | 315 kts | 45° |
| 2026-04-23 19:32 | 44.21064 | -77.89819 | 21962 ft | 313 kts | 45° |
| 2026-04-23 19:32 | 44.22293 | -77.87296 | 22037 ft | 315 kts | 45° |
| 2026-04-23 19:32 | 44.23533 | -77.84744 | 22115 ft | 317 kts | 44° |
| 2026-04-23 19:32 | 44.24770 | -77.82192 | 22265 ft | 316 kts | 44° |
| 2026-04-23 19:33 | 44.25992 | -77.79661 | 22432 ft | 315 kts | 45° |
| 2026-04-23 19:33 | 44.27213 | -77.77135 | 22515 ft | 315 kts | 45° |
| 2026-04-23 19:33 | 44.29660 | -77.72061 | 22709 ft | 317 kts | 45° |
| 2026-04-23 19:34 | 44.30885 | -77.69518 | 22812 ft | 318 kts | 44° |
| 2026-04-23 19:34 | 44.32122 | -77.66946 | 22902 ft | 318 kts | 45° |
| 2026-04-23 19:34 | 44.34594 | -77.61800 | 23002 ft | 322 kts | 44° |
| 2026-04-23 19:35 | 44.35852 | -77.59180 | 23008 ft | 324 kts | 44° |
| 2026-04-23 19:35 | 44.37106 | -77.56565 | 23023 ft | 326 kts | 44° |
| 2026-04-23 19:35 | 44.38356 | -77.53946 | 23090 ft | 327 kts | 44° |
| 2026-04-23 19:35 | 44.39640 | -77.51273 | 23113 ft | 330 kts | 44° |
| 2026-04-23 19:36 | 44.40902 | -77.48629 | 23116 ft | 331 kts | 45° |
| 2026-04-23 19:36 | 44.42186 | -77.45935 | 23111 ft | 334 kts | 45° |
| 2026-04-23 19:36 | 44.43476 | -77.43239 | 23107 ft | 334 kts | 45° |
| 2026-04-23 19:36 | 44.44761 | -77.40535 | 23109 ft | 336 kts | 45° |
| 2026-04-23 19:37 | 44.46066 | -77.37790 | 23107 ft | 338 kts | 45° |
| 2026-04-23 19:37 | 44.47363 | -77.35057 | 23104 ft | 339 kts | 45° |
| 2026-04-23 19:37 | 44.48674 | -77.32293 | 23105 ft | 341 kts | 45° |
| 2026-04-23 19:37 | 44.49997 | -77.29502 | 23107 ft | 342 kts | 45° |
| 2026-04-23 19:38 | 44.51308 | -77.26733 | 23106 ft | 342 kts | 45° |
| 2026-04-23 19:38 | 44.52621 | -77.23959 | 23107 ft | 343 kts | 45° |
| 2026-04-23 19:38 | 44.53939 | -77.21172 | 23117 ft | 343 kts | 45° |
| 2026-04-23 19:38 | 44.55261 | -77.18372 | 23107 ft | 344 kts | 45° |
| 2026-04-23 19:39 | 44.56573 | -77.15593 | 23112 ft | 343 kts | 45° |
| 2026-04-23 19:39 | 44.57905 | -77.12769 | 23103 ft | 344 kts | 45° |
| 2026-04-23 19:39 | 44.59205 | -77.10010 | 23103 ft | 344 kts | 45° |
| 2026-04-23 19:39 | 44.60531 | -77.07193 | 23093 ft | 345 kts | 45° |
| 2026-04-23 19:40 | 44.61853 | -77.04382 | 23104 ft | 344 kts | 45° |
| 2026-04-23 19:40 | 44.62225 | -77.03591 | 23099 ft | 345 kts | 45° |
| 2026-04-23 19:41 | 44.62974 | -77.01995 | 23110 ft | 345 kts | 45° |
| 2026-04-23 19:41 | 44.63616 | -77.00627 | 23106 ft | 345 kts | 45° |
| 2026-04-23 19:42 | 44.64680 | -76.98359 | 23112 ft | 344 kts | 45° |
| 2026-04-23 19:42 | 44.66000 | -76.95538 | 23147 ft | 344 kts | 45° |
| 2026-04-23 19:42 | 44.67336 | -76.92707 | 22715 ft | 357 kts | 45° |
| 2026-04-23 19:42 | 44.68719 | -76.89771 | 22271 ft | 368 kts | 45° |
| 2026-04-23 19:43 | 44.70148 | -76.86758 | 21808 ft | 371 kts | 44° |
| 2026-04-23 19:43 | 44.71624 | -76.83801 | 21356 ft | 369 kts | 43° |
| 2026-04-23 19:43 | 44.73086 | -76.80905 | 20987 ft | 366 kts | 43° |
| 2026-04-23 19:43 | 44.74557 | -76.77993 | 20612 ft | 364 kts | 43° |
| 2026-04-23 19:44 | 44.76024 | -76.75090 | 20241 ft | 362 kts | 43° |
| 2026-04-23 19:44 | 44.77482 | -76.72202 | 19874 ft | 361 kts | 43° |
| 2026-04-23 19:44 | 44.78927 | -76.69343 | 19501 ft | 360 kts | 43° |
| 2026-04-23 19:44 | 44.80371 | -76.66485 | 19129 ft | 359 kts | 43° |
| 2026-04-23 19:45 | 44.81824 | -76.63604 | 18758 ft | 359 kts | 44° |
| 2026-04-23 19:45 | 44.83248 | -76.60777 | 18393 ft | 358 kts | 43° |
| 2026-04-23 19:45 | 44.84689 | -76.57916 | 18029 ft | 357 kts | 43° |
| 2026-04-23 19:45 | 44.86129 | -76.55048 | 17658 ft | 356 kts | 43° |
| 2026-04-23 19:46 | 44.87557 | -76.52209 | 17294 ft | 355 kts | 43° |
| 2026-04-23 19:46 | 44.88968 | -76.49396 | 16930 ft | 354 kts | 43° |
| 2026-04-23 19:46 | 44.90399 | -76.46535 | 16556 ft | 352 kts | 43° |
| 2026-04-23 19:46 | 44.91792 | -76.43750 | 16190 ft | 352 kts | 43° |
| 2026-04-23 19:47 | 44.93203 | -76.40929 | 15818 ft | 352 kts | 43° |
| 2026-04-23 19:47 | 44.94620 | -76.38099 | 15452 ft | 350 kts | 43° |
| 2026-04-23 19:47 | 44.96063 | -76.35390 | 15089 ft | 347 kts | 40° |
| 2026-04-23 19:47 | 44.97530 | -76.32723 | 14714 ft | 345 kts | 41° |
| 2026-04-23 19:48 | 44.98996 | -76.30056 | 14344 ft | 344 kts | 41° |
| 2026-04-23 19:48 | 45.00474 | -76.27360 | 13961 ft | 343 kts | 41° |
| 2026-04-23 19:48 | 45.01927 | -76.24706 | 13593 ft | 342 kts | 41° |
| 2026-04-23 19:48 | 45.03363 | -76.22074 | 13227 ft | 341 kts | 41° |
| 2026-04-23 19:49 | 45.04818 | -76.19401 | 12857 ft | 335 kts | 41° |
| 2026-04-23 19:49 | 45.06167 | -76.16905 | 12457 ft | 313 kts | 41° |
| 2026-04-23 19:49 | 45.07465 | -76.14504 | 11935 ft | 302 kts | 41° |
| 2026-04-23 19:49 | 45.08718 | -76.12193 | 11351 ft | 294 kts | 41° |
| 2026-04-23 19:50 | 45.09964 | -76.09914 | 10390 ft | 301 kts | 41° |
| 2026-04-23 19:50 | 45.11234 | -76.07589 | 9819 ft | 291 kts | 42° |
| 2026-04-23 19:50 | 45.12409 | -76.05397 | 9670 ft | 269 kts | 42° |
| 2026-04-23 19:50 | 45.13529 | -76.03323 | 9460 ft | 262 kts | 42° |
| 2026-04-23 19:51 | 45.14635 | -76.01288 | 9208 ft | 263 kts | 42° |
| 2026-04-23 19:51 | 45.15689 | -75.99350 | 8958 ft | 265 kts | 42° |
| 2026-04-23 19:51 | 45.16605 | -75.97661 | 8740 ft | 266 kts | 42° |
| 2026-04-23 19:51 | 45.17718 | -75.95604 | 8456 ft | 267 kts | 42° |
| 2026-04-23 19:52 | 45.18857 | -75.93494 | 8186 ft | 267 kts | 43° |
| 2026-04-23 19:52 | 45.19964 | -75.91437 | 7902 ft | 261 kts | 43° |
| 2026-04-23 19:52 | 45.21049 | -75.89409 | 7633 ft | 255 kts | 44° |
| 2026-04-23 19:52 | 45.21831 | -75.87117 | 7289 ft | 271 kts | 71° |
| 2026-04-23 19:53 | 45.21649 | -75.84404 | 7040 ft | 281 kts | 99° |
| 2026-04-23 19:53 | 45.21048 | -75.81791 | 6750 ft | 279 kts | 102° |
| 2026-04-23 19:53 | 45.20424 | -75.79202 | 6461 ft | 276 kts | 102° |
| 2026-04-23 19:53 | 45.19807 | -75.76642 | 6178 ft | 273 kts | 102° |
| 2026-04-23 19:54 | 45.19197 | -75.74101 | 5894 ft | 271 kts | 102° |
| 2026-04-23 19:54 | 45.18595 | -75.71580 | 5616 ft | 268 kts | 103° |
| 2026-04-23 19:54 | 45.18006 | -75.69103 | 5340 ft | 265 kts | 103° |
| 2026-04-23 19:54 | 45.17417 | -75.66619 | 5061 ft | 263 kts | 103° |
| 2026-04-23 19:55 | 45.16850 | -75.64230 | 4965 ft | 252 kts | 103° |
| 2026-04-23 19:55 | 45.16295 | -75.61890 | 4794 ft | 248 kts | 103° |
| 2026-04-23 19:55 | 45.15750 | -75.59582 | 4557 ft | 245 kts | 103° |
| 2026-04-23 19:55 | 45.15217 | -75.57329 | 4414 ft | 238 kts | 103° |
| 2026-04-23 19:56 | 45.14698 | -75.55143 | 4284 ft | 231 kts | 104° |
| 2026-04-23 19:56 | 45.14187 | -75.53024 | 4128 ft | 226 kts | 104° |
| 2026-04-23 19:56 | 45.13675 | -75.50931 | 3953 ft | 222 kts | 103° |
| 2026-04-23 19:56 | 45.13179 | -75.48875 | 3767 ft | 218 kts | 103° |
| 2026-04-23 19:57 | 45.12703 | -75.46879 | 3574 ft | 216 kts | 104° |
| 2026-04-23 19:57 | 45.12233 | -75.44866 | 3367 ft | 213 kts | 103° |
| 2026-04-23 19:57 | 45.11772 | -75.42877 | 3192 ft | 209 kts | 104° |
| 2026-04-23 19:57 | 45.11334 | -75.40988 | 3115 ft | 197 kts | 104° |
| 2026-04-23 19:58 | 45.10914 | -75.39191 | 3077 ft | 185 kts | 103° |
| 2026-04-23 19:58 | 45.10545 | -75.37523 | 3052 ft | 171 kts | 93° |
| 2026-04-23 19:58 | 45.10830 | -75.36040 | 3049 ft | 153 kts | 35° |
| 2026-04-23 19:58 | 45.11758 | -75.35719 | 3059 ft | 140 kts | 342° |
| 2026-04-23 19:59 | 45.12667 | -75.36276 | 3078 ft | 143 kts | 332° |
| 2026-04-23 19:59 | 45.13547 | -75.37021 | 3098 ft | 155 kts | 327° |
| 2026-04-23 19:59 | 45.14478 | -75.37955 | 3102 ft | 169 kts | 325° |
| 2026-04-23 19:59 | 45.15473 | -75.38945 | 3098 ft | 182 kts | 326° |
| 2026-04-23 20:00 | 45.16423 | -75.40248 | 3082 ft | 197 kts | 302° |
| 2026-04-23 20:00 | 45.16715 | -75.42175 | 3089 ft | 213 kts | 270° |
| 2026-04-23 20:00 | 45.16920 | -75.44219 | 3049 ft | 209 kts | 305° |
| 2026-04-23 20:00 | 45.17916 | -75.45805 | 2762 ft | 226 kts | 316° |
| 2026-04-23 20:01 | 45.19026 | -75.47258 | 3103 ft | 206 kts | 320° |
| 2026-04-23 20:01 | 45.20128 | -75.48621 | 2874 ft | 218 kts | 321° |
| 2026-04-23 20:01 | 45.21339 | -75.49962 | 2496 ft | 221 kts | 324° |
| 2026-04-23 20:01 | 45.22564 | -75.51251 | 2135 ft | 218 kts | 324° |
| 2026-04-23 20:02 | 45.23762 | -75.52478 | 2031 ft | 204 kts | 326° |
| 2026-04-23 20:02 | 45.24889 | -75.53647 | 1845 ft | 196 kts | 317° |
| 2026-04-23 20:02 | 45.25676 | -75.55110 | 1787 ft | 182 kts | 307° |
| 2026-04-23 20:02 | 45.26395 | -75.56548 | 1599 ft | 174 kts | 308° |
| 2026-04-23 20:03 | 45.27085 | -75.57941 | 1299 ft | 171 kts | 307° |
| 2026-04-23 20:03 | 45.27776 | -75.59258 | 1109 ft | 162 kts | 310° |
| 2026-04-23 20:03 | 45.28455 | -75.60482 | 1133 ft | 158 kts | 310° |
| 2026-04-23 20:03 | 45.29097 | -75.61723 | 1131 ft | 152 kts | 309° |
| 2026-04-23 20:04 | 45.29738 | -75.62936 | 916 ft | 156 kts | 308° |
| 2026-04-23 20:04 | 45.30389 | -75.64177 | 722 ft | 156 kts | 308° |
| 2026-04-23 20:04 | 45.31012 | -75.65376 | 438 ft | 145 kts | 308° |
| 2026-04-23 20:04 | 45.31559 | -75.66410 | 374 ft | 108 kts | 307° |
| 2026-04-23 20:05 | 45.31831 | -75.66936 | 382 ft | 47 kts | 304° |
| 2026-04-23 20:05 | 45.31987 | -75.67239 | 382 ft | 27 kts | 308° |
| 2026-04-23 20:05 | 45.32138 | -75.67162 | 382 ft | 24 kts | 38° |
| 2026-04-23 20:05 | 45.32264 | -75.67039 | 379 ft | 11 kts | 36° |
| 2026-04-23 20:06 | 45.32283 | -75.67019 | 379 ft | 0 kts | 36° |